Terminal Aerodrome Forecast
Issued by NWS

Home | Current Version | Previous Version | Text Only | Print | Product List | Glossary On
Versions: 1 2 3 4 5 6 7 8 9 10 11 12 13 14 15 16 17 18
730
FTUS46 KMTR 262002 AAA
TAFMRY
TAF AMD
KMRY 262002Z 2620/2718 23010KT P6SM SCT022
      TEMPO 2622/2624 BKN015
     FM270000 24013KT P6SM OVC015
     FM270200 24005KT P6SM OVC007
     FM271000 VRB03KT P6SM OVC007=

USA.gov is the U.S. government's official web portal to all federal, state and local government web resources and services.